sensor_id;sensor_type;location;lat;lon;timestamp;temperature;humidity
33414;DHT22;60055;41.884;12.534;2022-12-07T00:01:12;12.90;99.90
33414;DHT22;60055;41.884;12.534;2022-12-07T00:03:39;12.90;99.90
33414;DHT22;60055;41.884;12.534;2022-12-07T00:06:07;12.80;99.90
33414;DHT22;60055;41.884;12.534;2022-12-07T00:08:34;12.70;99.90
33414;DHT22;60055;41.884;12.534;2022-12-07T00:11:08;12.80;99.90
33414;DHT22;60055;41.884;12.534;2022-12-07T00:13:35;12.80;99.90
33414;DHT22;60055;41.884;12.534;2022-12-07T00:16:15;12.70;99.90
33414;DHT22;60055;41.884;12.534;2022-12-07T00:18:42;12.70;99.90
33414;DHT22;60055;41.884;12.534;2022-12-07T00:21:18;12.70;99.90
33414;DHT22;60055;41.884;12.534;2022-12-07T00:23:45;12.70;99.90
33414;DHT22;60055;41.884;12.534;2022-12-07T00:28:40;12.70;99.90
33414;DHT22;60055;41.884;12.534;2022-12-07T00:31:11;12.60;99.90
33414;DHT22;60055;41.884;12.534;2022-12-07T00:33:37;12.60;99.90
33414;DHT22;60055;41.884;12.534;2022-12-07T00:36:06;12.50;99.90
33414;DHT22;60055;41.884;12.534;2022-12-07T00:38:33;12.50;99.90
33414;DHT22;60055;41.884;12.534;2022-12-07T00:41:02;12.50;99.90
33414;DHT22;60055;41.884;12.534;2022-12-07T00:43:28;12.60;99.90
33414;DHT22;60055;41.884;12.534;2022-12-07T00:45:54;12.50;99.90
33414;DHT22;60055;41.884;12.534;2022-12-07T00:48:21;12.50;99.90
33414;DHT22;60055;41.884;12.534;2022-12-07T00:50:47;12.40;99.90
33414;DHT22;60055;41.884;12.534;2022-12-07T00:53:13;12.50;99.90
33414;DHT22;60055;41.884;12.534;2022-12-07T00:55:39;12.50;99.90
33414;DHT22;60055;41.884;12.534;2022-12-07T00:58:05;12.50;99.90
33414;DHT22;60055;41.884;12.534;2022-12-07T01:00:32;12.60;99.90
33414;DHT22;60055;41.884;12.534;2022-12-07T01:02:59;12.50;99.90
33414;DHT22;60055;41.884;12.534;2022-12-07T01:05:24;12.60;99.90
33414;DHT22;60055;41.884;12.534;2022-12-07T01:07:50;12.60;99.90
33414;DHT22;60055;41.884;12.534;2022-12-07T01:10:15;12.40;99.90
33414;DHT22;60055;41.884;12.534;2022-12-07T01:12:41;12.30;99.90
33414;DHT22;60055;41.884;12.534;2022-12-07T01:15:07;12.30;99.90
33414;DHT22;60055;41.884;12.534;2022-12-07T01:17:33;12.30;99.90
33414;DHT22;60055;41.884;12.534;2022-12-07T01:19:59;12.30;99.90
33414;DHT22;60055;41.884;12.534;2022-12-07T01:22:25;12.20;99.90
33414;DHT22;60055;41.884;12.534;2022-12-07T01:24:51;12.20;99.90
33414;DHT22;60055;41.884;12.534;2022-12-07T01:27:16;12.20;99.90
33414;DHT22;60055;41.884;12.534;2022-12-07T01:29:42;12.30;99.90
33414;DHT22;60055;41.884;12.534;2022-12-07T01:32:08;12.20;99.90
33414;DHT22;60055;41.884;12.534;2022-12-07T01:34:33;12.20;99.90
33414;DHT22;60055;41.884;12.534;2022-12-07T01:36:59;12.20;99.90
33414;DHT22;60055;41.884;12.534;2022-12-07T01:39:24;12.20;99.90
33414;DHT22;60055;41.884;12.534;2022-12-07T01:41:50;12.20;99.90
33414;DHT22;60055;41.884;12.534;2022-12-07T01:46:50;12.20;99.90
33414;DHT22;60055;41.884;12.534;2022-12-07T01:49:35;12.30;99.90
33414;DHT22;60055;41.884;12.534;2022-12-07T01:52:31;12.30;99.90
33414;DHT22;60055;41.884;12.534;2022-12-07T01:55:06;12.30;99.90
33414;DHT22;60055;41.884;12.534;2022-12-07T01:57:35;12.40;99.90
33414;DHT22;60055;41.884;12.534;2022-12-07T02:00:03;12.40;99.90
33414;DHT22;60055;41.884;12.534;2022-12-07T02:02:36;12.40;99.90
33414;DHT22;60055;41.884;12.534;2022-12-07T02:05:04;12.30;99.90
33414;DHT22;60055;41.884;12.534;2022-12-07T02:07:32;12.30;99.90
33414;DHT22;60055;41.884;12.534;2022-12-07T02:10:20;12.30;99.90
33414;DHT22;60055;41.884;12.534;2022-12-07T02:12:49;12.30;99.90
33414;DHT22;60055;41.884;12.534;2022-12-07T02:15:18;12.30;99.90
33414;DHT22;60055;41.884;12.534;2022-12-07T02:20:57;12.20;99.90
33414;DHT22;60055;41.884;12.534;2022-12-07T02:31:30;12.10;99.90
33414;DHT22;60055;41.884;12.534;2022-12-07T02:34:18;12.20;99.90
33414;DHT22;60055;41.884;12.534;2022-12-07T02:36:49;12.10;99.90
33414;DHT22;60055;41.884;12.534;2022-12-07T02:39:40;12.10;99.90
33414;DHT22;60055;41.884;12.534;2022-12-07T02:42:20;12.10;99.90
33414;DHT22;60055;41.884;12.534;2022-12-07T02:44:48;12.00;99.90
33414;DHT22;60055;41.884;12.534;2022-12-07T02:47:19;12.10;99.90
33414;DHT22;60055;41.884;12.534;2022-12-07T02:49:46;12.10;99.90
33414;DHT22;60055;41.884;12.534;2022-12-07T02:52:12;12.20;99.90
33414;DHT22;60055;41.884;12.534;2022-12-07T02:54:38;12.00;99.90
33414;DHT22;60055;41.884;12.534;2022-12-07T03:00:19;12.00;99.90
33414;DHT22;60055;41.884;12.534;2022-12-07T03:03:00;11.80;99.90
33414;DHT22;60055;41.884;12.534;2022-12-07T03:05:41;11.90;99.90
33414;DHT22;60055;41.884;12.534;2022-12-07T03:08:22;11.90;99.90
33414;DHT22;60055;41.884;12.534;2022-12-07T03:16:34;11.80;99.90
33414;DHT22;60055;41.884;12.534;2022-12-07T03:19:10;11.80;99.90
33414;DHT22;60055;41.884;12.534;2022-12-07T03:21:42;11.80;99.90
33414;DHT22;60055;41.884;12.534;2022-12-07T03:24:13;11.80;99.90
33414;DHT22;60055;41.884;12.534;2022-12-07T03:26:48;11.70;99.90
33414;DHT22;60055;41.884;12.534;2022-12-07T03:29:28;11.70;99.90
33414;DHT22;60055;41.884;12.534;2022-12-07T03:31:59;11.80;99.90
33414;DHT22;60055;41.884;12.534;2022-12-07T03:34:53;11.80;99.90
33414;DHT22;60055;41.884;12.534;2022-12-07T03:38:13;11.80;99.90
33414;DHT22;60055;41.884;12.534;2022-12-07T03:40:42;11.70;99.90
33414;DHT22;60055;41.884;12.534;2022-12-07T03:43:10;11.70;99.90
33414;DHT22;60055;41.884;12.534;2022-12-07T03:45:44;11.60;99.90
33414;DHT22;60055;41.884;12.534;2022-12-07T03:48:37;11.60;99.90
33414;DHT22;60055;41.884;12.534;2022-12-07T03:53:54;11.70;99.90
33414;DHT22;60055;41.884;12.534;2022-12-07T03:56:22;11.70;99.90
33414;DHT22;60055;41.884;12.534;2022-12-07T03:58:49;11.80;99.90
33414;DHT22;60055;41.884;12.534;2022-12-07T04:01:15;11.70;99.90
33414;DHT22;60055;41.884;12.534;2022-12-07T04:03:40;11.60;99.90
33414;DHT22;60055;41.884;12.534;2022-12-07T04:06:06;11.60;99.90
33414;DHT22;60055;41.884;12.534;2022-12-07T04:08:32;11.70;99.90
33414;DHT22;60055;41.884;12.534;2022-12-07T04:10:57;11.80;99.90
33414;DHT22;60055;41.884;12.534;2022-12-07T04:13:23;11.70;99.90
33414;DHT22;60055;41.884;12.534;2022-12-07T04:15:48;11.70;99.90
33414;DHT22;60055;41.884;12.534;2022-12-07T04:18:14;11.60;99.90
33414;DHT22;60055;41.884;12.534;2022-12-07T04:20:40;11.50;99.90
33414;DHT22;60055;41.884;12.534;2022-12-07T04:23:06;11.50;99.90
33414;DHT22;60055;41.884;12.534;2022-12-07T04:25:32;11.60;99.90
33414;DHT22;60055;41.884;12.534;2022-12-07T04:27:57;11.70;99.90
33414;DHT22;60055;41.884;12.534;2022-12-07T04:30:23;11.70;99.90
33414;DHT22;60055;41.884;12.534;2022-12-07T04:32:49;11.70;99.90
33414;DHT22;60055;41.884;12.534;2022-12-07T04:35:17;11.70;99.90
33414;DHT22;60055;41.884;12.534;2022-12-07T04:37:44;11.80;99.90
33414;DHT22;60055;41.884;12.534;2022-12-07T04:40:09;11.70;99.90
33414;DHT22;60055;41.884;12.534;2022-12-07T04:42:36;11.60;99.90
33414;DHT22;60055;41.884;12.534;2022-12-07T04:45:02;11.60;99.90
33414;DHT22;60055;41.884;12.534;2022-12-07T04:47:28;11.60;99.90
33414;DHT22;60055;41.884;12.534;2022-12-07T04:49:56;11.50;99.90
33414;DHT22;60055;41.884;12.534;2022-12-07T04:52:22;11.50;99.90
33414;DHT22;60055;41.884;12.534;2022-12-07T04:54:47;11.50;99.90
33414;DHT22;60055;41.884;12.534;2022-12-07T04:57:13;11.60;99.90
33414;DHT22;60055;41.884;12.534;2022-12-07T04:59:39;11.60;99.90
33414;DHT22;60055;41.884;12.534;2022-12-07T05:02:04;11.70;99.90
33414;DHT22;60055;41.884;12.534;2022-12-07T05:04:30;11.70;99.90
33414;DHT22;60055;41.884;12.534;2022-12-07T05:06:55;11.70;99.90
33414;DHT22;60055;41.884;12.534;2022-12-07T05:09:21;11.60;99.90
33414;DHT22;60055;41.884;12.534;2022-12-07T05:11:47;11.70;99.90
33414;DHT22;60055;41.884;12.534;2022-12-07T05:14:20;11.80;99.90
33414;DHT22;60055;41.884;12.534;2022-12-07T05:16:48;11.70;99.90
33414;DHT22;60055;41.884;12.534;2022-12-07T05:19:16;11.70;99.90
33414;DHT22;60055;41.884;12.534;2022-12-07T05:21:42;11.70;99.90
33414;DHT22;60055;41.884;12.534;2022-12-07T05:24:09;11.60;99.90
33414;DHT22;60055;41.884;12.534;2022-12-07T05:26:35;11.60;99.90
33414;DHT22;60055;41.884;12.534;2022-12-07T05:29:01;11.60;99.90
33414;DHT22;60055;41.884;12.534;2022-12-07T05:31:27;11.70;99.90
33414;DHT22;60055;41.884;12.534;2022-12-07T05:33:53;11.60;99.90
33414;DHT22;60055;41.884;12.534;2022-12-07T05:36:19;11.50;99.90
33414;DHT22;60055;41.884;12.534;2022-12-07T05:38:45;11.40;99.90
33414;DHT22;60055;41.884;12.534;2022-12-07T05:41:14;11.50;99.90
33414;DHT22;60055;41.884;12.534;2022-12-07T05:43:59;11.60;99.90
33414;DHT22;60055;41.884;12.534;2022-12-07T05:46:24;11.70;99.90
33414;DHT22;60055;41.884;12.534;2022-12-07T05:48:50;11.70;99.90
33414;DHT22;60055;41.884;12.534;2022-12-07T05:51:16;11.70;99.90
33414;DHT22;60055;41.884;12.534;2022-12-07T05:53:42;11.70;99.90
33414;DHT22;60055;41.884;12.534;2022-12-07T05:56:08;11.60;99.90
33414;DHT22;60055;41.884;12.534;2022-12-07T05:58:33;11.70;99.90
33414;DHT22;60055;41.884;12.534;2022-12-07T06:01:17;11.70;99.90
33414;DHT22;60055;41.884;12.534;2022-12-07T06:03:43;11.70;99.90
33414;DHT22;60055;41.884;12.534;2022-12-07T06:06:13;11.30;99.90
33414;DHT22;60055;41.884;12.534;2022-12-07T06:08:38;11.10;99.90
33414;DHT22;60055;41.884;12.534;2022-12-07T06:11:04;11.30;99.90
33414;DHT22;60055;41.884;12.534;2022-12-07T06:13:48;11.40;99.90
33414;DHT22;60055;41.884;12.534;2022-12-07T06:16:14;11.40;99.90
33414;DHT22;60055;41.884;12.534;2022-12-07T06:18:40;11.40;99.90
33414;DHT22;60055;41.884;12.534;2022-12-07T06:21:05;11.50;99.90
33414;DHT22;60055;41.884;12.534;2022-12-07T06:23:31;11.50;99.90
33414;DHT22;60055;41.884;12.534;2022-12-07T06:25:56;11.70;99.90
33414;DHT22;60055;41.884;12.534;2022-12-07T06:28:22;11.60;99.90
33414;DHT22;60055;41.884;12.534;2022-12-07T06:30:48;11.80;99.90
33414;DHT22;60055;41.884;12.534;2022-12-07T06:33:21;11.90;99.90
33414;DHT22;60055;41.884;12.534;2022-12-07T06:35:47;12.00;99.90
33414;DHT22;60055;41.884;12.534;2022-12-07T06:38:12;12.10;99.90
33414;DHT22;60055;41.884;12.534;2022-12-07T06:40:39;12.00;99.90
33414;DHT22;60055;41.884;12.534;2022-12-07T06:43:05;11.90;99.90
33414;DHT22;60055;41.884;12.534;2022-12-07T06:45:32;12.10;99.90
33414;DHT22;60055;41.884;12.534;2022-12-07T06:47:57;12.00;99.90
33414;DHT22;60055;41.884;12.534;2022-12-07T06:50:23;11.70;99.90
33414;DHT22;60055;41.884;12.534;2022-12-07T06:52:48;11.90;99.90
33414;DHT22;60055;41.884;12.534;2022-12-07T06:55:15;11.90;99.90
33414;DHT22;60055;41.884;12.534;2022-12-07T06:57:44;11.70;99.90
33414;DHT22;60055;41.884;12.534;2022-12-07T07:00:10;11.50;99.90
33414;DHT22;60055;41.884;12.534;2022-12-07T07:02:36;11.40;99.90
33414;DHT22;60055;41.884;12.534;2022-12-07T07:05:02;11.50;99.90
33414;DHT22;60055;41.884;12.534;2022-12-07T07:07:28;11.70;99.90
33414;DHT22;60055;41.884;12.534;2022-12-07T07:09:53;11.70;99.90
33414;DHT22;60055;41.884;12.534;2022-12-07T07:12:19;11.80;99.90
33414;DHT22;60055;41.884;12.534;2022-12-07T07:14:45;12.00;99.90
33414;DHT22;60055;41.884;12.534;2022-12-07T07:17:10;12.10;99.90
33414;DHT22;60055;41.884;12.534;2022-12-07T07:19:36;11.90;99.90
33414;DHT22;60055;41.884;12.534;2022-12-07T07:22:03;11.80;99.90
33414;DHT22;60055;41.884;12.534;2022-12-07T07:24:28;11.80;99.90
33414;DHT22;60055;41.884;12.534;2022-12-07T07:26:54;11.90;99.90
33414;DHT22;60055;41.884;12.534;2022-12-07T07:29:20;11.90;99.90
33414;DHT22;60055;41.884;12.534;2022-12-07T07:31:46;11.80;99.90
33414;DHT22;60055;41.884;12.534;2022-12-07T07:34:11;12.00;99.90
33414;DHT22;60055;41.884;12.534;2022-12-07T07:36:37;12.00;99.90
33414;DHT22;60055;41.884;12.534;2022-12-07T07:39:03;12.10;99.90
33414;DHT22;60055;41.884;12.534;2022-12-07T07:41:30;12.30;99.90
33414;DHT22;60055;41.884;12.534;2022-12-07T07:43:57;12.20;99.90
33414;DHT22;60055;41.884;12.534;2022-12-07T07:46:23;12.50;99.90
33414;DHT22;60055;41.884;12.534;2022-12-07T07:48:48;12.60;99.90
33414;DHT22;60055;41.884;12.534;2022-12-07T07:51:14;12.40;99.90
33414;DHT22;60055;41.884;12.534;2022-12-07T07:53:40;12.60;99.90
33414;DHT22;60055;41.884;12.534;2022-12-07T07:56:05;12.60;99.90
33414;DHT22;60055;41.884;12.534;2022-12-07T07:58:31;12.70;99.90
33414;DHT22;60055;41.884;12.534;2022-12-07T08:00:56;12.60;99.90
33414;DHT22;60055;41.884;12.534;2022-12-07T08:03:22;12.50;99.90
33414;DHT22;60055;41.884;12.534;2022-12-07T08:05:48;12.80;99.90
33414;DHT22;60055;41.884;12.534;2022-12-07T08:08:13;13.00;99.90
33414;DHT22;60055;41.884;12.534;2022-12-07T08:10:40;13.10;99.90
33414;DHT22;60055;41.884;12.534;2022-12-07T08:13:07;13.10;99.90
33414;DHT22;60055;41.884;12.534;2022-12-07T08:15:38;13.00;99.90
33414;DHT22;60055;41.884;12.534;2022-12-07T08:18:04;12.60;99.90
33414;DHT22;60055;41.884;12.534;2022-12-07T08:20:31;12.80;99.90
33414;DHT22;60055;41.884;12.534;2022-12-07T08:22:57;13.20;99.90
33414;DHT22;60055;41.884;12.534;2022-12-07T08:25:23;13.50;99.90
33414;DHT22;60055;41.884;12.534;2022-12-07T08:27:48;13.50;99.90
33414;DHT22;60055;41.884;12.534;2022-12-07T08:30:15;13.60;99.90
33414;DHT22;60055;41.884;12.534;2022-12-07T08:32:41;13.30;99.90
33414;DHT22;60055;41.884;12.534;2022-12-07T08:35:07;13.40;99.90
33414;DHT22;60055;41.884;12.534;2022-12-07T08:37:33;13.30;99.90
33414;DHT22;60055;41.884;12.534;2022-12-07T08:39:59;13.80;99.90
33414;DHT22;60055;41.884;12.534;2022-12-07T08:42:25;14.10;99.90
33414;DHT22;60055;41.884;12.534;2022-12-07T08:44:55;14.30;99.90
33414;DHT22;60055;41.884;12.534;2022-12-07T08:47:21;14.30;99.90
33414;DHT22;60055;41.884;12.534;2022-12-07T08:49:50;14.10;99.90
33414;DHT22;60055;41.884;12.534;2022-12-07T08:52:17;14.20;99.90
33414;DHT22;60055;41.884;12.534;2022-12-07T08:54:43;14.50;99.90
33414;DHT22;60055;41.884;12.534;2022-12-07T08:57:10;14.50;99.90
33414;DHT22;60055;41.884;12.534;2022-12-07T08:59:37;14.40;99.90
33414;DHT22;60055;41.884;12.534;2022-12-07T09:02:04;14.30;99.90
33414;DHT22;60055;41.884;12.534;2022-12-07T09:04:29;14.20;99.90
33414;DHT22;60055;41.884;12.534;2022-12-07T09:06:55;14.20;99.90
33414;DHT22;60055;41.884;12.534;2022-12-07T09:09:21;14.10;99.90
33414;DHT22;60055;41.884;12.534;2022-12-07T09:11:47;14.30;99.90
33414;DHT22;60055;41.884;12.534;2022-12-07T09:14:12;14.60;99.90
33414;DHT22;60055;41.884;12.534;2022-12-07T09:16:39;14.50;99.90
33414;DHT22;60055;41.884;12.534;2022-12-07T09:19:04;14.40;99.90
33414;DHT22;60055;41.884;12.534;2022-12-07T09:21:30;14.30;99.90
33414;DHT22;60055;41.884;12.534;2022-12-07T09:23:58;14.00;99.90
33414;DHT22;60055;41.884;12.534;2022-12-07T09:26:24;13.90;99.90
33414;DHT22;60055;41.884;12.534;2022-12-07T09:28:50;14.10;99.90
33414;DHT22;60055;41.884;12.534;2022-12-07T09:31:16;14.10;99.90
33414;DHT22;60055;41.884;12.534;2022-12-07T09:33:42;14.30;99.90
33414;DHT22;60055;41.884;12.534;2022-12-07T09:36:08;14.50;99.90
33414;DHT22;60055;41.884;12.534;2022-12-07T09:38:35;14.70;99.90
33414;DHT22;60055;41.884;12.534;2022-12-07T09:41:07;14.90;99.90
33414;DHT22;60055;41.884;12.534;2022-12-07T09:43:35;15.10;99.90
33414;DHT22;60055;41.884;12.534;2022-12-07T09:46:01;15.20;99.90
33414;DHT22;60055;41.884;12.534;2022-12-07T09:48:34;15.10;99.90
33414;DHT22;60055;41.884;12.534;2022-12-07T09:51:18;15.20;99.90
33414;DHT22;60055;41.884;12.534;2022-12-07T09:53:45;15.30;99.90
33414;DHT22;60055;41.884;12.534;2022-12-07T09:56:13;15.30;99.90
33414;DHT22;60055;41.884;12.534;2022-12-07T09:58:40;15.10;99.90
33414;DHT22;60055;41.884;12.534;2022-12-07T10:01:10;15.00;99.90
33414;DHT22;60055;41.884;12.534;2022-12-07T10:03:38;14.90;99.90
33414;DHT22;60055;41.884;12.534;2022-12-07T10:06:05;14.90;99.90
33414;DHT22;60055;41.884;12.534;2022-12-07T10:08:31;15.00;99.90
33414;DHT22;60055;41.884;12.534;2022-12-07T10:10:57;15.20;99.90
33414;DHT22;60055;41.884;12.534;2022-12-07T10:13:40;15.20;99.90
33414;DHT22;60055;41.884;12.534;2022-12-07T10:16:25;15.40;99.90
33414;DHT22;60055;41.884;12.534;2022-12-07T10:18:53;15.70;99.90
33414;DHT22;60055;41.884;12.534;2022-12-07T10:21:25;16.10;99.90
33414;DHT22;60055;41.884;12.534;2022-12-07T10:24:02;16.40;99.90
33414;DHT22;60055;41.884;12.534;2022-12-07T10:26:40;16.30;99.90
33414;DHT22;60055;41.884;12.534;2022-12-07T10:31:40;16.10;99.90
33414;DHT22;60055;41.884;12.534;2022-12-07T10:34:22;16.00;99.90
33414;DHT22;60055;41.884;12.534;2022-12-07T10:36:50;16.00;99.90
33414;DHT22;60055;41.884;12.534;2022-12-07T10:39:20;16.10;99.90
33414;DHT22;60055;41.884;12.534;2022-12-07T10:41:53;16.00;99.90
33414;DHT22;60055;41.884;12.534;2022-12-07T10:44:26;16.00;99.90
33414;DHT22;60055;41.884;12.534;2022-12-07T10:58:37;16.20;99.90
33414;DHT22;60055;41.884;12.534;2022-12-07T11:08:09;16.50;99.90
33414;DHT22;60055;41.884;12.534;2022-12-07T11:10:38;16.60;99.90
33414;DHT22;60055;41.884;12.534;2022-12-07T11:16:20;16.80;99.90
33414;DHT22;60055;41.884;12.534;2022-12-07T11:22:02;16.60;99.90
33414;DHT22;60055;41.884;12.534;2022-12-07T11:29:47;16.70;99.90
33414;DHT22;60055;41.884;12.534;2022-12-07T11:32:45;16.80;99.90
33414;DHT22;60055;41.884;12.534;2022-12-07T11:38:16;16.80;99.90
33414;DHT22;60055;41.884;12.534;2022-12-07T11:40:48;17.00;99.90
33414;DHT22;60055;41.884;12.534;2022-12-07T11:46:09;17.10;99.90
33414;DHT22;60055;41.884;12.534;2022-12-07T11:49:11;17.00;99.90
33414;DHT22;60055;41.884;12.534;2022-12-07T11:51:40;16.90;99.90
33414;DHT22;60055;41.884;12.534;2022-12-07T11:54:28;17.00;99.90
33414;DHT22;60055;41.884;12.534;2022-12-07T11:56:56;17.10;99.90
33414;DHT22;60055;41.884;12.534;2022-12-07T11:59:48;16.90;99.90
33414;DHT22;60055;41.884;12.534;2022-12-07T12:02:21;17.00;99.90
33414;DHT22;60055;41.884;12.534;2022-12-07T12:05:01;17.10;99.90
33414;DHT22;60055;41.884;12.534;2022-12-07T12:07:28;17.30;99.90
33414;DHT22;60055;41.884;12.534;2022-12-07T12:13:14;17.60;99.90
33414;DHT22;60055;41.884;12.534;2022-12-07T12:21:28;17.60;99.90
33414;DHT22;60055;41.884;12.534;2022-12-07T12:24:04;17.60;99.90
33414;DHT22;60055;41.884;12.534;2022-12-07T12:26:35;17.70;99.90
33414;DHT22;60055;41.884;12.534;2022-12-07T12:29:05;17.80;99.90
33414;DHT22;60055;41.884;12.534;2022-12-07T12:31:40;17.80;99.90
33414;DHT22;60055;41.884;12.534;2022-12-07T12:40:37;17.60;99.90
33414;DHT22;60055;41.884;12.534;2022-12-07T12:49:35;17.70;99.90
33414;DHT22;60055;41.884;12.534;2022-12-07T12:54:38;17.80;99.90
33414;DHT22;60055;41.884;12.534;2022-12-07T12:57:31;17.80;99.90
33414;DHT22;60055;41.884;12.534;2022-12-07T13:00:02;17.70;99.90
33414;DHT22;60055;41.884;12.534;2022-12-07T13:02:54;17.60;99.90
33414;DHT22;60055;41.884;12.534;2022-12-07T13:05:25;17.40;99.90
33414;DHT22;60055;41.884;12.534;2022-12-07T13:08:01;17.50;99.90
33414;DHT22;60055;41.884;12.534;2022-12-07T13:15:47;17.80;99.90
33414;DHT22;60055;41.884;12.534;2022-12-07T13:20:56;17.70;99.90
33414;DHT22;60055;41.884;12.534;2022-12-07T13:26:26;17.60;99.90
33414;DHT22;60055;41.884;12.534;2022-12-07T13:29:11;17.60;99.90
33414;DHT22;60055;41.884;12.534;2022-12-07T13:36:57;17.70;99.90
33414;DHT22;60055;41.884;12.534;2022-12-07T13:39:26;17.60;99.90
33414;DHT22;60055;41.884;12.534;2022-12-07T13:41:55;17.50;99.90
33414;DHT22;60055;41.884;12.534;2022-12-07T13:44:23;17.50;99.90
33414;DHT22;60055;41.884;12.534;2022-12-07T13:47:16;17.60;99.90
33414;DHT22;60055;41.884;12.534;2022-12-07T13:49:47;17.40;99.90
33414;DHT22;60055;41.884;12.534;2022-12-07T13:52:19;17.30;99.90
33414;DHT22;60055;41.884;12.534;2022-12-07T13:54:47;17.10;99.90
33414;DHT22;60055;41.884;12.534;2022-12-07T13:57:15;16.90;99.90
33414;DHT22;60055;41.884;12.534;2022-12-07T13:59:42;16.90;99.90
33414;DHT22;60055;41.884;12.534;2022-12-07T14:02:24;16.90;99.90
33414;DHT22;60055;41.884;12.534;2022-12-07T14:04:51;17.00;99.90
33414;DHT22;60055;41.884;12.534;2022-12-07T14:07:25;17.10;99.90
33414;DHT22;60055;41.884;12.534;2022-12-07T14:10:04;17.00;99.90
33414;DHT22;60055;41.884;12.534;2022-12-07T14:12:32;17.10;99.90
33414;DHT22;60055;41.884;12.534;2022-12-07T14:15:01;17.10;99.90
33414;DHT22;60055;41.884;12.534;2022-12-07T14:17:27;17.10;99.90
33414;DHT22;60055;41.884;12.534;2022-12-07T14:19:59;17.10;99.90
33414;DHT22;60055;41.884;12.534;2022-12-07T14:22:29;17.10;99.90
33414;DHT22;60055;41.884;12.534;2022-12-07T14:25:21;17.10;99.90
33414;DHT22;60055;41.884;12.534;2022-12-07T14:28:01;17.20;99.90
33414;DHT22;60055;41.884;12.534;2022-12-07T14:30:31;17.10;99.90
33414;DHT22;60055;41.884;12.534;2022-12-07T14:33:00;17.10;99.90
33414;DHT22;60055;41.884;12.534;2022-12-07T14:35:29;17.10;99.90
33414;DHT22;60055;41.884;12.534;2022-12-07T14:37:55;17.10;99.90
33414;DHT22;60055;41.884;12.534;2022-12-07T14:40:26;17.20;99.90
33414;DHT22;60055;41.884;12.534;2022-12-07T14:42:57;17.20;99.90
33414;DHT22;60055;41.884;12.534;2022-12-07T14:45:23;17.20;99.90
33414;DHT22;60055;41.884;12.534;2022-12-07T14:47:49;17.00;99.90
33414;DHT22;60055;41.884;12.534;2022-12-07T14:50:17;17.00;99.90
33414;DHT22;60055;41.884;12.534;2022-12-07T14:52:48;16.90;99.90
33414;DHT22;60055;41.884;12.534;2022-12-07T14:55:26;16.80;99.90
33414;DHT22;60055;41.884;12.534;2022-12-07T14:57:52;16.80;99.90
33414;DHT22;60055;41.884;12.534;2022-12-07T15:00:19;16.70;99.90
33414;DHT22;60055;41.884;12.534;2022-12-07T15:02:46;16.60;99.90
33414;DHT22;60055;41.884;12.534;2022-12-07T15:05:12;16.60;99.90
33414;DHT22;60055;41.884;12.534;2022-12-07T15:07:40;16.50;99.90
33414;DHT22;60055;41.884;12.534;2022-12-07T15:10:09;16.50;99.90
33414;DHT22;60055;41.884;12.534;2022-12-07T15:12:36;16.50;99.90
33414;DHT22;60055;41.884;12.534;2022-12-07T15:15:02;16.50;99.90
33414;DHT22;60055;41.884;12.534;2022-12-07T15:17:28;16.50;99.90
33414;DHT22;60055;41.884;12.534;2022-12-07T15:19:56;16.50;99.90
33414;DHT22;60055;41.884;12.534;2022-12-07T15:22:21;16.50;99.90
33414;DHT22;60055;41.884;12.534;2022-12-07T15:24:47;16.50;99.90
33414;DHT22;60055;41.884;12.534;2022-12-07T15:27:13;16.50;99.90
33414;DHT22;60055;41.884;12.534;2022-12-07T15:29:41;16.50;99.90
33414;DHT22;60055;41.884;12.534;2022-12-07T15:32:07;16.40;99.90
33414;DHT22;60055;41.884;12.534;2022-12-07T15:34:35;16.30;99.90
33414;DHT22;60055;41.884;12.534;2022-12-07T15:37:01;16.30;99.90
33414;DHT22;60055;41.884;12.534;2022-12-07T15:39:26;16.20;99.90
33414;DHT22;60055;41.884;12.534;2022-12-07T15:41:52;16.20;99.90
33414;DHT22;60055;41.884;12.534;2022-12-07T15:44:18;16.20;99.90
33414;DHT22;60055;41.884;12.534;2022-12-07T15:47:02;16.20;99.90
33414;DHT22;60055;41.884;12.534;2022-12-07T15:49:29;16.20;99.90
33414;DHT22;60055;41.884;12.534;2022-12-07T15:51:54;16.30;99.90
33414;DHT22;60055;41.884;12.534;2022-12-07T15:54:28;16.20;99.90
33414;DHT22;60055;41.884;12.534;2022-12-07T15:56:57;16.10;99.90
33414;DHT22;60055;41.884;12.534;2022-12-07T15:59:23;16.10;99.90
33414;DHT22;60055;41.884;12.534;2022-12-07T16:01:50;16.10;99.90
33414;DHT22;60055;41.884;12.534;2022-12-07T16:04:18;16.10;99.90
33414;DHT22;60055;41.884;12.534;2022-12-07T16:06:44;16.10;99.90
33414;DHT22;60055;41.884;12.534;2022-12-07T16:09:10;16.10;99.90
33414;DHT22;60055;41.884;12.534;2022-12-07T16:11:35;16.00;99.90
33414;DHT22;60055;41.884;12.534;2022-12-07T16:14:01;16.00;99.90
33414;DHT22;60055;41.884;12.534;2022-12-07T16:16:27;15.90;99.90
33414;DHT22;60055;41.884;12.534;2022-12-07T16:18:53;16.00;99.90
33414;DHT22;60055;41.884;12.534;2022-12-07T16:21:19;16.00;99.90
33414;DHT22;60055;41.884;12.534;2022-12-07T16:23:45;16.00;99.90
33414;DHT22;60055;41.884;12.534;2022-12-07T16:26:14;16.10;99.90
33414;DHT22;60055;41.884;12.534;2022-12-07T16:28:40;16.00;99.90
33414;DHT22;60055;41.884;12.534;2022-12-07T16:31:13;16.00;99.90
33414;DHT22;60055;41.884;12.534;2022-12-07T16:33:40;16.00;99.90
33414;DHT22;60055;41.884;12.534;2022-12-07T16:36:08;15.90;99.90
33414;DHT22;60055;41.884;12.534;2022-12-07T16:38:35;15.90;99.90
33414;DHT22;60055;41.884;12.534;2022-12-07T16:41:01;15.90;99.90
33414;DHT22;60055;41.884;12.534;2022-12-07T16:43:26;15.80;99.90
33414;DHT22;60055;41.884;12.534;2022-12-07T16:45:52;15.80;99.90
33414;DHT22;60055;41.884;12.534;2022-12-07T16:48:18;15.90;99.90
33414;DHT22;60055;41.884;12.534;2022-12-07T16:50:45;15.90;99.90
33414;DHT22;60055;41.884;12.534;2022-12-07T16:53:13;15.90;99.90
33414;DHT22;60055;41.884;12.534;2022-12-07T16:55:44;15.90;99.90
33414;DHT22;60055;41.884;12.534;2022-12-07T16:58:11;16.00;99.90
33414;DHT22;60055;41.884;12.534;2022-12-07T17:00:38;16.00;99.90
33414;DHT22;60055;41.884;12.534;2022-12-07T17:03:08;16.00;99.90
33414;DHT22;60055;41.884;12.534;2022-12-07T17:05:37;16.00;99.90
33414;DHT22;60055;41.884;12.534;2022-12-07T17:08:03;16.20;99.90
33414;DHT22;60055;41.884;12.534;2022-12-07T17:10:29;16.10;99.90
33414;DHT22;60055;41.884;12.534;2022-12-07T17:12:54;16.10;99.90
33414;DHT22;60055;41.884;12.534;2022-12-07T17:15:20;15.90;99.90